METAR Data
IDs: Format: Raw Decoded Include TAF

Data at: 2143 UTC 18 Apr 2021

KPVB 182135Z AUTO 25009G17KT 10SM SCT080 16/M02 A2983 RMK AO1 T01591017